Accueil
METAR-TAF:

METAR-TAF

Aéroports :

Aéroport de Grenoble Alpes Isère

Grenoble, France

latitude: 45-22N, longitude: 005-20E, altitude: 384 m

Observation

Le bulletin a été fait il y a 10 minutes, à 09:00 UTC
Vent 3 kt de direction variable
Température 18°C
Humidité 56%
Pression 1012 hPa
Visibilité 10 km ou plus
pas de nuages en-dessous de 1500 mètres et pas de cumulonimbus.

METAR: LFLS 150900Z AUTO VRB03KT CAVOK 18/09 Q1012 NOSIG

Heure: 11:10 (09:10 UTC)

Prévision

Le bulletin a été fait il y a 1 heure et 10 minutes, à 08:00 UTC
Prévision valable du 15 à 09 UTC au 16 à 09 UTC
Vent 3 kt de direction variable
Visibilité 10 km ou plus
pas de nuages en-dessous de 1500 mètres et pas de cumulonimbus.

TAF: LFLS 150800Z 1509/1609 VRB03KT CAVOK

Observations et prévisions météorologiques de plus de 4000 aéroports (messages METAR et TAF).

Les stations disponibles sont représentées par des disques jaunes et rouges sur la carte.

Passer la souris dessus pour voir le nom de la station.

Cliquer dessus pour voir les observations et prévisions météorologiques.

Pour changer de carte: cliquez sur les boutons verts avec une croix noire pour zoomer, sur le bouton vert avec un tiret pour effectuer un zoom arrière, ou sur les flèches vertes pour les cartes adjacentes.


METAR-TAF: